Siskiyou Pass Past Weather

Last 30 Days

 
High: 50ºf @8:54 AM    Low: 38ºf @3:54 AM     Approx. Precipitation / Rain Total: in.
Time (PDT)Temp. (ºf)Humidity (%)Dew Point (ºf)Barometer (inHG)Wind Speed (mph)Wind DirectionWind Gust (mph)1hr. Precip / Rain Total (in.)Snow Depth
8:54 AM507341.69-1.74nw8.69--
7:54 AM458239.84-1.74nnw6.95--
5:54 AM408937.02-0.87ne5.21--
4:54 AM389035.33-1.74ne5.21--
3:54 AM389336.16-1.74ne3.48--
2:54 AM399136.6-1.74nne3.48--
1:54 AM408836.74-0.87nne4.34--
12:54 AM428638.12-1.74nne4.34--
High: 67ºf @2:54 PM    Low: 41ºf @5:54 AM     Approx. Precipitation / Rain Total: in.
Time (PDT)Temp. (ºf)Humidity (%)Dew Point (ºf)Barometer (inHG)Wind Speed (mph)Wind DirectionWind Gust (mph)1hr. Precip / Rain Total (in.)Snow Depth
11:54 PM448038.23-0.87ene4.34--
10:54 PM457838.56-0.87ene2.61--
9:54 PM487339.76---4.34--
8:54 PM545739.11-1.74nne5.21--
7:54 PM535939.06-1.74nne5.21--
6:54 PM565841.43-0.87ne6.95--
5:54 PM614640.07-2.61wnw9.56--
4:54 PM653536.68-4.34wnw15.64--
3:54 PM663336.07-5.21nw16.51--
2:54 PM673639.16-4.34wnw17.38--
12:54 PM653738.09-5.21nw16.51--
11:54 AM594638.25-5.21nw14.77--
10:54 AM595341.89-4.34wnw13.03--
9:54 AM556242.22-3.48wnw9.56--
8:54 AM497541.43-2.61nw10.43--
7:54 AM458340.15-1.74nnw10.43--
6:54 AM467839.53-2.61nw6.95--
5:54 AM418536.84-2.61ne6.08--
4:54 AM448138.55-2.61nnw7.82--
3:54 AM457938.89-1.74nw6.08--
2:54 AM448439.48-1.74n5.21--
1:54 AM428838.71-1.74ene4.34--
12:54 AM467638.87-0.87nne5.21--
High: 60ºf @2:54 PM    Low: 32ºf @1:54 AM     Approx. Precipitation / Rain Total: in.
Time (PDT)Temp. (ºf)Humidity (%)Dew Point (ºf)Barometer (inHG)Wind Speed (mph)Wind DirectionWind Gust (mph)1hr. Precip / Rain Total (in.)Snow Depth
11:54 PM497340.73-0.87wnw6.08--
9:54 PM458039.21---3.48--
7:54 PM467739.2-0.87n4.34--
6:54 PM497240.37-0.87nw6.95--
5:54 PM536340.75-3.48nw10.43--
4:54 PM555740.05-3.48wnw11.3--
3:54 PM575540.99-4.34wnw13.03--
2:54 PM604739.71-0.87w6.08--
1:54 PM564736.06---3.48--
12:54 PM534934.36---3.48--
11:54 AM505132.59---3.48--
10:54 AM485130.74---2.61--
9:54 AM465932.48---2.61--
8:54 AM418035.31---2.61--
7:54 AM378833.78---2.61--
6:54 AM369133.63---1.74--
5:54 AM378532.92---1.74--
3:54 AM338930.12-0.87ne2.61--
2:54 AM348730.55-1.74nne3.48--
1:54 AM328628.3-1.74ne4.34--
12:54 AM338428.7-0.87ene4.34--
High: 57ºf @2:54 PM    Low: 35ºf @11:54 PM     Approx. Precipitation / Rain Total: in.
Time (PDT)Temp. (ºf)Humidity (%)Dew Point (ºf)Barometer (inHG)Wind Speed (mph)Wind DirectionWind Gust (mph)1hr. Precip / Rain Total (in.)Snow Depth
11:54 PM358330.37-2.61ne5.21--
9:54 PM407532.73---6.08--
8:54 PM427233.64-0.87w6.08--
7:54 PM465530.75-0.87nw8.69--
6:54 PM485130.74-2.61nnw11.3--
5:54 PM524129.04-3.48n13.9--
4:54 PM544130.84-4.34nnw13.03--
3:54 PM553930.5-4.34nnw13.03--
2:54 PM573630.31-4.34nnw13.9--
1:54 PM544633.69-5.21nw15.64--
12:54 PM538047-2.61wnw11.3--
11:54 AM479545.64-0.87s4.34--
10:54 AM469444.37-3.48ese6.95--
8:54 AM449843.47---2.61--
6:54 AM439441.39-2.61ese7.82--
5:54 AM439140.56-3.48ese9.56--
4:54 AM439140.56-3.48ese7.82--
3:54 AM457938.89-4.34ese9.56--
2:54 AM457437.22-5.21ese12.17--
1:54 AM467137.13-3.48ese7.82--
12:54 AM449141.54---2.61--
High: 60ºf @1:54 PM    Low: 32ºf @7:54 AM     Approx. Precipitation / Rain Total: in.
Time (PDT)Temp. (ºf)Humidity (%)Dew Point (ºf)Barometer (inHG)Wind Speed (mph)Wind DirectionWind Gust (mph)1hr. Precip / Rain Total (in.)Snow Depth
11:54 PM468140.5-0.87ese4.34--
10:54 PM458139.53---0.87--
9:54 PM467939.86---2.61--
8:54 PM467939.86---2.61--
5:54 PM535637.73-0.87nw5.21--
4:54 PM575038.55-0.87wnw5.21--
3:54 PM555338.19-0.87w6.08--
2:54 PM604236.84-0.87sw6.95--
1:54 PM604337.44-2.61sse6.95--
12:54 PM594638.25-2.61nnw5.21--
11:54 AM565339.11-0.87s4.34--
10:54 AM536139.91-0.87wsw4.34--
9:54 AM477037.73---2.61--
8:54 AM408335.26-0.87ne4.34--
7:54 AM329530.73-0.87ne3.48--
6:54 AM339431.47-1.74ne3.48--
4:54 AM379234.9-0.87ene3.48--
3:54 AM399036.32---2.61--
1:54 AM388433.6-0.87ne6.08--
12:54 AM349031.38---6.08--
High: 58ºf @2:54 PM    Low: 35ºf @11:54 PM     Approx. Precipitation / Rain Total: in.
Time (PDT)Temp. (ºf)Humidity (%)Dew Point (ºf)Barometer (inHG)Wind Speed (mph)Wind DirectionWind Gust (mph)1hr. Precip / Rain Total (in.)Snow Depth
11:54 PM358731.53-0.87ene6.08--
9:54 PM378232.03-1.74ene4.34--
8:54 PM397732.41-0.87e4.34--
7:54 PM436933.54-0.87n4.34--
6:54 PM476033.84-0.87n6.95--
5:54 PM525033.94-1.74n7.82--
4:54 PM525033.94-0.87n10.43--
3:54 PM554534.05-3.48nw10.43--
2:54 PM584033.82-2.61nnw8.69--
1:54 PM584235.04-2.61nw9.56--
11:54 AM544633.69-0.87wsw6.08--
10:54 AM545236.78-0.87wsw5.21--
9:54 AM496738.53---3.48--
8:54 AM428537.82-0.87ene3.48--
7:54 AM359533.72-0.87ene3.48--
6:54 AM399437.42-0.87n6.95--
5:54 AM409438.41-2.61nw6.95--
4:54 AM419639.95-0.87wnw6.95--
3:54 AM439441.39-3.48nw9.56--
2:54 AM449542.66-0.87wnw6.08--
12:54 AM477840.5-0.87sse4.34--
High: 65ºf @1:54 PM    Low: 35ºf @5:54 AM     Approx. Precipitation / Rain Total: in.
Time (PDT)Temp. (ºf)Humidity (%)Dew Point (ºf)Barometer (inHG)Wind Speed (mph)Wind DirectionWind Gust (mph)1hr. Precip / Rain Total (in.)Snow Depth
11:54 PM487741.14-0.87s12.17--
10:54 PM497541.43-5.21ese10.43--
9:54 PM516439.26-3.48ese7.82--
7:54 PM583026.75-3.48se11.3--
6:54 PM582925.93-4.34se12.17--
5:54 PM592825.95-4.34se13.9--
4:54 PM602725.93-6.08se17.38--
2:54 PM632425.64-6.08se19.99--
1:54 PM652528.32-5.21se16.51--
12:54 PM642729.35-3.48sse11.3--
11:54 AM642830.24-4.34se13.03--
10:54 AM603230.06-3.48se11.3--
9:54 AM593329.94-5.21se12.17--
8:54 AM533828.08-1.74sse6.08--
7:54 AM367328.2-0.87nw2.61--
6:54 AM366826.48-0.87ese2.61--
5:54 AM357226.9---3.48--
4:54 AM357126.56-0.87ne3.48--
3:54 AM356925.87-0.87ene3.48--
2:54 AM376526.35-0.87ene4.34--
1:54 AM376727.08-0.87nne3.48--
12:54 AM386426.92---3.48--
High: 68ºf @1:54 PM    Low: 34ºf @6:54 AM     Approx. Precipitation / Rain Total: in.
Time (PDT)Temp. (ºf)Humidity (%)Dew Point (ºf)Barometer (inHG)Wind Speed (mph)Wind DirectionWind Gust (mph)1hr. Precip / Rain Total (in.)Snow Depth
10:54 PM416128.6-0.87ne2.61--
9:54 PM445327.98-0.87ne2.61--
8:54 PM514027.54---6.08--
7:54 PM592220.22-4.34ese7.82--
6:54 PM602927.66-3.48ese7.82--
5:54 PM623030.21-4.34se8.69--
4:54 PM652831.1-2.61se7.82--
2:54 PM672630.98-4.34se10.43--
1:54 PM682530.86-4.34se12.17--
12:54 PM682429.86-3.48se11.3--
11:54 AM672024.61-4.34se10.43--
10:54 AM662327.14-1.74se6.08--
9:54 AM584134.43---2.61--
8:54 AM456433.57---3.48--
7:54 AM357728.53-0.87ne3.48--
6:54 AM348229.09-0.87ne3.48--
5:54 AM357828.85-0.87ne3.48--
4:54 AM367729.5-1.74ne3.48--
3:54 AM367629.18-1.74ne3.48--
1:54 AM387330.13-0.87ne3.48--
High: 71ºf @2:54 PM    Low: 32ºf @7:54 AM     Approx. Precipitation / Rain Total: in.
Time (PDT)Temp. (ºf)Humidity (%)Dew Point (ºf)Barometer (inHG)Wind Speed (mph)Wind DirectionWind Gust (mph)1hr. Precip / Rain Total (in.)Snow Depth
11:54 PM406830.3-0.87ne3.48--
10:54 PM416530.15-1.74ne3.48--
9:54 PM436331.28-0.87ne3.48--
8:54 PM465832.06-1.74ene2.61--
7:54 PM505634.93-0.87ne3.48--
5:54 PM662124.95-1.74se7.82--
4:54 PM692026.26-1.74se6.95--
2:54 PM711825.36-1.74sse7.82--
1:54 PM711926.66-3.48se10.43--
10:54 AM633031.08-0.87ese3.48--
9:54 AM564333.82---2.61--
8:54 AM436732.8---2.61--
7:54 AM328628.3-1.74nne3.48--
6:54 AM348028.49-1.74ne5.21--
5:54 AM357628.21-2.61ne5.21--
4:54 AM347928.18-1.74nne4.34--
3:54 AM347225.94-1.74nne3.48--
2:54 AM346824.57---4.34--
1:54 AM346222.37-1.74nne3.48--
12:54 AM365621.84-2.61nne4.34--
High: 68ºf @2:54 PM    Low: 34ºf @7:54 AM     Approx. Precipitation / Rain Total: in.
Time (PDT)Temp. (ºf)Humidity (%)Dew Point (ºf)Barometer (inHG)Wind Speed (mph)Wind DirectionWind Gust (mph)1hr. Precip / Rain Total (in.)Snow Depth
11:54 PM375823.61-1.74nne3.48--
10:54 PM376124.82-0.87n3.48--
9:54 PM405525.15-1.74nne4.34--
7:54 PM494629.13-0.87ne4.34--
6:54 PM573126.67-2.61e5.21--
5:54 PM622222.73-1.74se6.08--
4:54 PM652225.23-2.61sse6.08--
2:54 PM682025.43-2.61sse11.3--
1:54 PM682126.61-3.48se12.17--
11:54 AM652427.33-2.61sse11.3--
9:54 AM554131.74---1.74--
8:54 AM456232.77---2.61--
7:54 AM347928.18-1.74ne3.48--
6:54 AM348229.09---3.48--
4:54 AM348028.49---3.48--
3:54 AM347727.56-0.87ne2.61--
2:54 AM367328.2-1.74ne2.61--
1:54 AM367227.86-1.74nne3.48--
12:54 AM377028.14-0.87ne4.34--
High: 72ºf @1:54 PM    Low: 30ºf @6:54 AM     Approx. Precipitation / Rain Total: in.
Time (PDT)Temp. (ºf)Humidity (%)Dew Point (ºf)Barometer (inHG)Wind Speed (mph)Wind DirectionWind Gust (mph)1hr. Precip / Rain Total (in.)Snow Depth
11:54 PM386828.39-1.74nne4.34--
10:54 PM416329.38-1.74ne4.34--
8:54 PM475933.42---3.48--
7:54 PM505835.81-0.87nne3.48--
6:54 PM564937.11-1.74ne3.48--
5:54 PM623131.02---6.08--
4:54 PM662529.17-1.74nnw5.21--
3:54 PM681822.92-1.74s6.08--
2:54 PM701723.18-1.74sse7.82--
1:54 PM721623.36-2.61se7.82--
12:54 PM701723.18-1.74sse6.95--
11:54 AM651921.74-0.87sw6.08--
9:54 AM563629.43-0.87n4.34--
8:54 AM435929.66---1.74--
6:54 AM307924.29-1.74nne4.34--
5:54 AM317624.34-1.74nne4.34--
4:54 AM307823.99-1.74nne3.48--
3:54 AM317423.7-1.74nne4.34--
2:54 AM327324.34-0.87n4.34--
1:54 AM346924.92-0.87nnw4.34--
12:54 AM337024.3---3.48--
High: 69ºf @2:54 PM    Low: 26ºf @7:54 AM     Approx. Precipitation / Rain Total: in.
Time (PDT)Temp. (ºf)Humidity (%)Dew Point (ºf)Barometer (inHG)Wind Speed (mph)Wind DirectionWind Gust (mph)1hr. Precip / Rain Total (in.)Snow Depth
11:54 PM346824.57-1.74n2.61--
10:54 PM356725.17-0.87n3.48--
8:54 PM426029.13-1.74nne2.61--
7:54 PM465731.63-0.87nne3.48--
6:54 PM543627.66---6.95--
5:54 PM612625.87-1.74nw7.82--
4:54 PM652225.23-2.61nw7.82--
3:54 PM661517.04-0.87sw6.08--
2:54 PM691214.29-0.87sse5.21--
1:54 PM691214.29-1.74sse5.21--
12:54 PM661719.95---4.34--
11:54 AM612019.65-0.87wsw4.34--
10:54 AM581915.99-0.87se3.48--
9:54 AM523021.54---2.61--
8:54 AM394921.48-1.74ne3.48--
7:54 AM267318.55-0.87n3.48--
6:54 AM267117.91-0.87n3.48--
5:54 AM276717.53-1.74nne3.48--
4:54 AM276717.53-1.74nne3.48--
High: 60ºf @1:54 PM    Low: 27ºf @1:54 AM     Approx. Precipitation / Rain Total: in.
Time (PDT)Temp. (ºf)Humidity (%)Dew Point (ºf)Barometer (inHG)Wind Speed (mph)Wind DirectionWind Gust (mph)1hr. Precip / Rain Total (in.)Snow Depth
1:54 PM601715.08-0.87wnw7.82--
12:54 PM561914.34-1.74w6.08--
11:54 AM552317.9-1.74w6.95--
10:54 AM502717.35-2.61nw7.82--
9:54 AM462915.55-1.74n5.21--
8:54 AM374517.66-0.87ese4.34--
7:54 AM276316.11-2.61ne4.34--
6:54 AM276516.83---4.34--
5:54 AM305415.39---6.08--
4:54 AM324814.56-1.74ne6.08--
2:54 AM295314.04-2.61ene6.08--
1:54 AM276115.37-2.61ene4.34--
12:54 AM285815.16-1.74ne6.08--
High: 53ºf @3:54 PM    Low: 28ºf @11:54 PM     Approx. Precipitation / Rain Total: in.
Time (PDT)Temp. (ºf)Humidity (%)Dew Point (ºf)Barometer (inHG)Wind Speed (mph)Wind DirectionWind Gust (mph)1hr. Precip / Rain Total (in.)Snow Depth
11:54 PM286015.93-1.74nne4.34--
9:54 PM325618.1-1.74ene5.21--
8:54 PM355520.49-3.48ne6.08--
7:54 PM394720.5-1.74ene4.34--
6:54 PM433718.53---7.82--
5:54 PM512415.5-1.74nw8.69--
4:54 PM522416.34-2.61wnw10.43--
3:54 PM532518.14-3.48w13.03--
2:54 PM532619.05-4.34nw14.77--
1:54 PM533022.41-4.34nnw13.03--
12:54 PM513423.63-3.48nnw16.51--
11:54 AM494025.74-4.34n11.3--
10:54 AM464827.42-3.48nnw10.43--
8:54 AM386627.67-3.48n11.3--
7:54 AM347727.56-2.61nne9.56--
6:54 AM348028.49-2.61ne11.3--
5:54 AM357728.53-2.61n13.03--
4:54 AM367729.5-3.48nw13.03--
3:54 AM387330.13-4.34wnw14.77--
2:54 AM416429.77-3.48nw16.51--
1:54 AM426229.94-5.21nw17.38--
12:54 AM436230.88-4.34wnw19.12--
High: 71ºf @2:54 PM    Low: 40ºf @2:54 AM     Approx. Precipitation / Rain Total: in.
Time (PDT)Temp. (ºf)Humidity (%)Dew Point (ºf)Barometer (inHG)Wind Speed (mph)Wind DirectionWind Gust (mph)1hr. Precip / Rain Total (in.)Snow Depth
10:54 PM466534.9-4.34nw12.17--
9:54 PM476535.85-2.61wnw11.3--
8:54 PM515535.41-2.61wnw13.9--
7:54 PM574032.92-2.61nnw10.43--
5:54 PM662932.83-2.61wnw9.56--
3:54 PM703137.97-2.61wnw7.82--
2:54 PM713441.21-2.61nw10.43--
1:54 PM674041.87-4.34nw13.9--
12:54 PM713642.69-3.48nw9.56--
11:54 AM644441.65-3.48nw11.3--
9:54 AM585039.47-3.48nw10.43--
8:54 AM545538.2-1.74nw10.43--
7:54 AM486235.61-1.74sse8.69--
6:54 AM466735.67-1.74nnw7.82--
5:54 AM418135.62-1.74ne4.34--
3:54 AM417634.02-2.61ne5.21--
2:54 AM408034.34-0.87n5.21--
12:54 AM408134.65-1.74n4.34--
High: 75ºf @3:54 PM    Low: 36ºf @6:54 AM     Approx. Precipitation / Rain Total: in.
Time (PDT)Temp. (ºf)Humidity (%)Dew Point (ºf)Barometer (inHG)Wind Speed (mph)Wind DirectionWind Gust (mph)1hr. Precip / Rain Total (in.)Snow Depth
11:54 PM417935-0.87nnw3.48--
10:54 PM437535.63-1.74nne3.48--
9:54 PM467137.13-1.74nne3.48--
7:54 PM537244.22---3.48--
6:54 PM606046.07-1.74ne2.61--
5:54 PM693338.69-0.87wnw6.08--
4:54 PM732434.07-1.74wnw6.95--
3:54 PM751422.57-0.87wsw5.21--
1:54 PM742838.81-3.48wnw9.56--
12:54 PM752839.67-1.74wnw6.08--
11:54 AM713038-1.74wnw6.95--
10:54 AM673739.86-2.61wnw7.82--
6:54 AM368732.51-1.74nne4.34--
5:54 AM378833.78-0.87n4.34--
4:54 AM369033.36-1.74n3.48--
3:54 AM378833.78-1.74n3.48--
2:54 AM378733.5-0.87-3.48--
1:54 AM388533.9-1.74nne4.34--
12:54 AM407934.02-1.74ne3.48--
High: 73ºf @2:54 PM    Low: 31ºf @6:54 AM     Approx. Precipitation / Rain Total: in.
Time (PDT)Temp. (ºf)Humidity (%)Dew Point (ºf)Barometer (inHG)Wind Speed (mph)Wind DirectionWind Gust (mph)1hr. Precip / Rain Total (in.)Snow Depth
11:54 PM408234.96---3.48--
10:54 PM418436.54-0.87nne2.61--
9:54 PM447937.91-0.87nnw2.61--
8:54 PM477639.83-1.74n3.48--
7:54 PM526841.77-1.74ne4.34--
6:54 PM595442.38-0.87nne5.21--
5:54 PM663839.66-1.74nw5.21--
4:54 PM693036.27-1.74wnw5.21--
3:54 PM703037.13-2.61nw6.08--
2:54 PM732535.09-0.87w5.21--
1:54 PM712735.33-1.74nnw5.21--
12:54 PM692733.62-1.74wsw6.08--
11:54 AM653234.42-1.74nw6.95--
10:54 AM623433.31-0.87n5.21--
9:54 AM564132.64-1.74nw6.08--
7:54 AM329129.68-1.74nne4.34--
6:54 AM319228.95-1.74nne3.48--
5:54 AM319429.48-0.87nne4.34--
3:54 AM329129.68-0.87nne3.48--
12:54 AM388233-0.87n4.34--
High: 63ºf @2:54 PM    Low: 32ºf @3:54 AM     Approx. Precipitation / Rain Total: in.
Time (PDT)Temp. (ºf)Humidity (%)Dew Point (ºf)Barometer (inHG)Wind Speed (mph)Wind DirectionWind Gust (mph)1hr. Precip / Rain Total (in.)Snow Depth
11:54 PM398133.67-1.74ne4.34--
10:54 PM407934.02-0.87nne3.48--
9:54 PM456835.08-1.74ne4.34--
8:54 PM466635.29-2.61ene5.21--
4:54 PM613230.93-1.74nw11.3--
3:54 PM613230.93-4.34nnw12.17--
2:54 PM633232.68-3.48n13.03--
1:54 PM623231.8-4.34n13.03--
12:54 PM613734.54-3.48n11.3--
11:54 AM574334.73-3.48n13.03--
10:54 AM574736.97-2.61n7.82--
9:54 AM506137.09-1.74wnw6.08--
8:54 AM466836.04-1.74nw6.95--
7:54 AM388734.48-0.87nnw5.21--
6:54 AM329330.21-2.61ne4.34--
4:54 AM339230.93-2.61ne4.34--
3:54 AM329330.21-1.74ne4.34--
2:54 AM339130.67-1.74ne5.21--
12:54 AM358831.81-0.87ene4.34--
High: 58ºf @2:54 PM    Low: 35ºf @6:54 AM     Approx. Precipitation / Rain Total: in.
Time (PDT)Temp. (ºf)Humidity (%)Dew Point (ºf)Barometer (inHG)Wind Speed (mph)Wind DirectionWind Gust (mph)1hr. Precip / Rain Total (in.)Snow Depth
11:54 PM368832.8-0.87ne3.48--
10:54 PM378432.62-1.74ne4.34--
9:54 PM388132.7-1.74ne3.48--
8:54 PM407733.38-0.87nne3.48--
7:54 PM446533-1.74ne5.21--
6:54 PM495232.15-0.87wnw7.82--
5:54 PM544030.23-2.61nw9.56--
4:54 PM553729.21-3.48nnw10.43--
3:54 PM573630.31-2.61nw10.43--
2:54 PM583530.51-2.61wnw11.3--
1:54 PM583631.2-3.48n11.3--
12:54 PM573831.65-2.61nw8.69--
11:54 AM554433.49-3.48nw10.43--
10:54 AM534733.32-2.61n10.43--
8:54 AM475933.42-2.61nne7.82--
7:54 AM368732.51-0.87nne4.34--
6:54 AM358932.09-0.87nne6.08--
5:54 AM368632.23-0.87nw5.21--
4:54 AM378432.62-1.74wnw7.82--
2:54 AM417834.68-0.87nw13.9--
1:54 AM417634.02-0.87wnw10.43--
12:54 AM446533-2.61nw11.3--
High: 60ºf @12:54 PM    Low: 40ºf @1:54 AM     Approx. Precipitation / Rain Total: in.
Time (PDT)Temp. (ºf)Humidity (%)Dew Point (ºf)Barometer (inHG)Wind Speed (mph)Wind DirectionWind Gust (mph)1hr. Precip / Rain Total (in.)Snow Depth
11:54 PM456734.71-3.48nnw12.17--
10:54 PM446934.49-1.74nnw7.82--
9:54 PM475833-2.61nnw10.43--
8:54 PM485833.94-2.61nw9.56--
7:54 PM505534.48-0.87nw9.56--
6:54 PM525134.44-3.48nw13.03--
5:54 PM544834.76-2.61n8.69--
4:54 PM565439.59-1.74nnw6.95--
3:54 PM575038.55-1.74nnw7.82--
2:54 PM594939.87-2.61wnw10.43--
1:54 PM594839.34-2.61wnw8.69--
12:54 PM604639.16-2.61wnw9.56--
11:54 AM594738.8-2.61wnw8.69--
10:54 AM565339.11-1.74nw8.69--
9:54 AM536039.49-2.61nnw6.95--
8:54 AM496838.9-1.74ne5.21--
7:54 AM428036.29-0.87ne5.21--
6:54 AM418235.93-0.87nw4.34--
5:54 AM428437.52---2.61--
4:54 AM457938.89-0.87ene6.08--
3:54 AM438739.4-0.87ne1.74--
2:54 AM418536.84---1.74--
1:54 AM408736.45---3.48--
High: 65ºf @1:54 PM    Low: 28ºf @6:54 AM     Approx. Precipitation / Rain Total: in.
Time (PDT)Temp. (ºf)Humidity (%)Dew Point (ºf)Barometer (inHG)Wind Speed (mph)Wind DirectionWind Gust (mph)1hr. Precip / Rain Total (in.)Snow Depth
1:54 PM652831.1-1.74s5.21--
12:54 PM642224.4-1.74sse6.08--
11:54 AM622929.38-1.74sse6.08--
10:54 AM573831.65-0.87ese4.34--
9:54 AM515033.02---4.34--
8:54 AM427534.66---3.48--
7:54 AM319429.48-0.87nnw3.48--
6:54 AM289627.01---3.48--
5:54 AM299628.01---3.48--
3:54 AM309629-0.87n3.48--
2:54 AM309528.74---3.48--
1:54 AM319529.74---3.48--
High: 59ºf @2:54 PM    Low: 29ºf @6:54 AM     Approx. Precipitation / Rain Total: in.
Time (PDT)Temp. (ºf)Humidity (%)Dew Point (ºf)Barometer (inHG)Wind Speed (mph)Wind DirectionWind Gust (mph)1hr. Precip / Rain Total (in.)Snow Depth
9:54 PM368632.23-1.74nne4.34--
8:54 PM398534.88-0.87ne3.48--
7:54 PM437234.6---3.48--
6:54 PM485733.5-0.87nw7.82--
3:54 PM564132.64-2.61wnw8.69--
2:54 PM593833.43-1.74wnw7.82--
1:54 PM584033.82-2.61nnw7.82--
12:54 PM554332.92-0.87w6.95--
10:54 AM505434.02-1.74nnw7.82--
9:54 AM466334.12-2.61nw6.95--
8:54 AM408435.56---2.61--
7:54 AM319630-0.87ne2.61--
6:54 AM299628.01-0.87ne3.48--
5:54 AM319630-0.87ne2.61--
4:54 AM329731.25---4.34--
3:54 AM299728.26-0.87ene3.48--
2:54 AM309729.25-1.74nne3.48--
12:54 AM329731.25-1.74ne3.48--
High: 54ºf @2:54 PM    Low: 33ºf @10:54 PM     Approx. Precipitation / Rain Total: in.
Time (PDT)Temp. (ºf)Humidity (%)Dew Point (ºf)Barometer (inHG)Wind Speed (mph)Wind DirectionWind Gust (mph)1hr. Precip / Rain Total (in.)Snow Depth
10:54 PM339531.73-0.87nne3.48--
9:54 PM369334.18-0.87ene2.61--
8:54 PM379435.44-0.87ne3.48--
7:54 PM399136.6-0.87ene1.74--
6:54 PM447436.25-0.87se6.08--
5:54 PM476535.85-1.74sse7.82--
4:54 PM486336.01-1.74e7.82--
3:54 PM525134.44-1.74wsw9.56--
2:54 PM544734.23-1.74wsw7.82--
1:54 PM515133.51-0.87ssw6.08--
12:54 PM495935.3-1.74nnw4.34--
11:54 AM476736.62-0.87wnw5.21--
10:54 AM448238.86-0.87nw6.08--
9:54 AM428537.82---2.61--
8:54 AM389837.49---2.61--
7:54 AM369935.75---1.74--
6:54 AM359934.75---1.74--
5:54 AM359934.75---1.74--
4:54 AM359834.49---1.74--
1:54 AM369835.49---0.87--
12:54 AM359834.49---2.61--
High: 50ºf @10:54 AM    Low: 35ºf @5:54 AM     Approx. Precipitation / Rain Total: in.
Time (PDT)Temp. (ºf)Humidity (%)Dew Point (ºf)Barometer (inHG)Wind Speed (mph)Wind DirectionWind Gust (mph)1hr. Precip / Rain Total (in.)Snow Depth
11:54 PM359834.49---1.74--
10:54 PM359834.49---1.74--
9:54 PM369735.23---1.74--
8:54 PM369634.97---2.61--
7:54 PM369735.23---2.61--
6:54 PM379736.23---5.21--
5:54 PM389436.43---5.21--
4:54 PM389135.61-1.74sse7.82--
3:54 PM418637.14-1.74se6.95--
2:54 PM437936.94-0.87w9.56--
1:54 PM484929.76-3.48se10.43--
12:54 PM475129.82-3.48se10.43--
11:54 AM484829.26-3.48se8.69--
10:54 AM504529.5-1.74e5.21--
9:54 AM456533.95-0.87w5.21--
8:54 AM426932.58-0.87wnw5.21--
7:54 AM388433.6---2.61--
6:54 AM368832.8-0.87nw2.61--
5:54 AM359032.37---5.21--
4:54 AM387330.13-1.74n9.56--
3:54 AM387530.79-2.61n12.17--
2:54 AM397130.41-3.48n12.17--
1:54 AM406830.3-3.48n10.43--
12:54 AM397732.41-3.48n9.56--
High: 56ºf @1:54 PM    Low: 38ºf @7:54 PM     Approx. Precipitation / Rain Total: in.
Time (PDT)Temp. (ºf)Humidity (%)Dew Point (ºf)Barometer (inHG)Wind Speed (mph)Wind DirectionWind Gust (mph)1hr. Precip / Rain Total (in.)Snow Depth
11:54 PM397732.41-3.48n15.64--
10:54 PM397732.41-3.48n12.17--
9:54 PM398033.36-3.48n10.43--
8:54 PM398133.67-3.48nw13.9--
7:54 PM388734.48-4.34nnw13.9--
6:54 PM388935.05-4.34nnw15.64--
5:54 PM436933.54-3.48n13.9--
4:54 PM437635.96-3.48n11.3--
3:54 PM399036.32-3.48n16.51--
2:54 PM475732.57-6.08nnw17.38--
1:54 PM564132.64-3.48nnw13.03--
12:54 PM544332.01-4.34n13.03--
11:54 AM535034.86-2.61nnw15.64--
10:54 AM505735.37-2.61n14.77--
9:54 AM467438.18-3.48nw14.77--
8:54 AM418637.14-3.48nnw12.17--
7:54 AM428939-2.61nw13.03--
6:54 AM428537.82-3.48nw16.51--
5:54 AM446733.76-3.48nnw13.03--
4:54 AM446733.76-3.48nnw12.17--
3:54 AM447034.85-2.61nw10.43--
2:54 AM437334.95-3.48nw13.03--
1:54 AM447135.21-4.34nw13.9--
12:54 AM457035.81-3.48nnw14.77--
High: 61ºf @6:54 PM    Low: 47ºf @11:54 PM     Approx. Precipitation / Rain Total: in.
Time (PDT)Temp. (ºf)Humidity (%)Dew Point (ºf)Barometer (inHG)Wind Speed (mph)Wind DirectionWind Gust (mph)1hr. Precip / Rain Total (in.)Snow Depth
11:54 PM476134.26-3.48nw13.9--
10:54 PM505032.1-2.61nw13.03--
9:54 PM524732.4-3.48nw9.56--
8:54 PM554031.13-3.48nw13.03--
7:54 PM573529.62-4.34nw9.56--
6:54 PM613835.21-2.61nw12.17--
Past Weather Disclaimer Note regarding "Approx. Precipitation / Rain Total"

Currently

Fair 49°F
30.40in
Barometer
71%
Humidity
Variable 3.5mph
Wind
Fair

Past Weather Nearby

More Local Information

Bookmark and Share

Go Ad Free - Become a Member